Time;durP1;ratioP1;P1;durP2;ratioP2;P2;SDS_P1;SDS_P2;PMS_P1;PMS_P2;Temp;Humidity;BMP_temperature;BMP_pressure;BME280_temperature;BME280_humidity;BME280_pressure;Samples;Min_cycle;Max_cycle;Signal;HPM_P1;HPM_P2
2022/03/25 00:00:47;;;;;;;26.95;19.25;;;;;;;;;;5031856;28;20032;-77
2022/03/25 00:03:13;;;;;;;28.55;18.23;;;;;;;;;;5031742;28;20473;-78
2022/03/25 00:05:39;;;;;;;27.27;20.20;;;;;;;;;;5031817;28;20073;-77
2022/03/25 00:08:06;;;;;;;25.52;18.83;;;;;;;;;;5031426;28;20022;-77
2022/03/25 00:10:33;;;;;;;27.05;20.33;;;;;;;;;;5031352;28;20494;-78
2022/03/25 00:12:59;;;;;;;26.27;19.60;;;;;;;;;;5031582;28;20033;-78
2022/03/25 00:15:26;;;;;;;31.92;21.27;;;;;;;;;;5032597;28;20123;-77
2022/03/25 00:17:52;;;;;;;27.48;19.23;;;;;;;;;;5031708;28;20081;-77
2022/03/25 00:20:19;;;;;;;28.02;18.13;;;;;;;;;;5031630;28;20495;-77
2022/03/25 00:22:45;;;;;;;32.47;21.63;;;;;;;;;;5031924;28;20520;-77
2022/03/25 00:25:11;;;;;;;28.48;21.25;;;;;;;;;;5030119;28;20033;-77
2022/03/25 00:27:38;;;;;;;27.52;19.15;;;;;;;;;;5030257;28;20168;-77
2022/03/25 00:30:05;;;;;;;28.50;21.00;;;;;;;;;;5028637;28;20451;-77
2022/03/25 00:32:31;;;;;;;28.58;18.85;;;;;;;;;;5031385;28;20080;-78
2022/03/25 00:34:57;;;;;;;27.88;19.48;;;;;;;;;;5031595;28;20037;-77
2022/03/25 00:37:25;;;;;;;26.83;18.65;;;;;;;;;;5031384;28;20026;-78
2022/03/25 00:39:52;;;;;;;26.30;17.27;;;;;;;;;;5031483;28;20104;-77
2022/03/25 00:42:18;;;;;;;28.70;17.48;;;;;;;;;;5031433;28;20039;-77
2022/03/25 00:44:44;;;;;;;23.63;17.02;;;;;;;;;;5031473;28;20104;-77
2022/03/25 00:47:11;;;;;;;23.50;17.20;;;;;;;;;;5031247;28;20087;-78
2022/03/25 00:49:37;;;;;;;22.00;16.23;;;;;;;;;;5031578;28;20029;-77
2022/03/25 00:52:03;;;;;;;25.02;17.40;;;;;;;;;;5031157;28;20032;-77
2022/03/25 00:54:29;;;;;;;25.77;16.30;;;;;;;;;;5030968;28;20038;-77
2022/03/25 00:56:57;;;;;;;24.45;17.85;;;;;;;;;;5031598;28;20026;-77
2022/03/25 00:59:23;;;;;;;31.88;17.48;;;;;;;;;;5031114;28;20072;-77
2022/03/25 01:01:49;;;;;;;23.23;18.92;;;;;;;;;;5031694;28;20036;-77
2022/03/25 01:04:16;;;;;;;28.50;19.65;;;;;;;;;;5031642;28;20021;-77
2022/03/25 01:06:43;;;;;;;32.70;23.20;;;;;;;;;;5031924;28;20076;-77
2022/03/25 01:09:09;;;;;;;24.60;16.98;;;;;;;;;;5031474;28;20017;-78
2022/03/25 01:11:35;;;;;;;25.00;18.40;;;;;;;;;;5031824;28;20464;-77
2022/03/25 01:14:02;;;;;;;25.70;18.48;;;;;;;;;;5031729;28;20034;-77
2022/03/25 01:16:28;;;;;;;24.48;17.35;;;;;;;;;;5031621;28;20032;-77
2022/03/25 01:18:54;;;;;;;20.92;15.43;;;;;;;;;;5031970;28;20389;-77
2022/03/25 01:21:20;;;;;;;20.75;15.95;;;;;;;;;;5033082;28;20029;-77
2022/03/25 01:23:48;;;;;;;22.80;17.88;;;;;;;;;;5035806;28;20034;-77
2022/03/25 01:26:15;;;;;;;24.08;17.58;;;;;;;;;;5035767;28;20061;-78
2022/03/25 01:28:41;;;;;;;23.20;16.30;;;;;;;;;;5035487;28;20037;-77
2022/03/25 01:31:09;;;;;;;20.80;15.02;;;;;;;;;;5035288;28;20056;-78
2022/03/25 01:33:36;;;;;;;29.98;21.17;;;;;;;;;;5035352;28;20112;-77
2022/03/25 01:36:03;;;;;;;39.15;26.42;;;;;;;;;;5035366;28;20116;-77
2022/03/25 01:38:29;;;;;;;48.55;28.85;;;;;;;;;;5035120;28;20109;-77
2022/03/25 01:40:56;;;;;;;45.05;25.95;;;;;;;;;;5035308;28;20034;-77
2022/03/25 01:43:22;;;;;;;41.65;23.52;;;;;;;;;;5033724;28;20033;-78
2022/03/25 01:45:48;;;;;;;30.08;18.33;;;;;;;;;;5035185;28;20034;-77
2022/03/25 01:48:16;;;;;;;25.67;17.88;;;;;;;;;;5034935;28;20358;-78
2022/03/25 01:50:46;;;;;;;22.73;16.23;;;;;;;;;;5035353;28;20483;-77
2022/03/25 01:53:16;;;;;;;22.42;15.98;;;;;;;;;;5034688;28;20109;-77
2022/03/25 01:56:01;;;;;;;22.20;15.63;;;;;;;;;;5034981;28;20104;-77
2022/03/25 01:58:28;;;;;;;21.92;15.38;;;;;;;;;;5034868;28;20142;-77
2022/03/25 02:00:55;;;;;;;23.02;16.75;;;;;;;;;;5034684;28;20530;-78
2022/03/25 02:03:23;;;;;;;21.13;15.30;;;;;;;;;;5034805;28;20045;-77
2022/03/25 02:05:49;;;;;;;21.02;14.45;;;;;;;;;;5034846;28;20065;-77
2022/03/25 02:08:15;;;;;;;18.38;13.80;;;;;;;;;;5033423;28;20053;-77
2022/03/25 02:10:42;;;;;;;17.80;13.35;;;;;;;;;;5034822;28;20112;-77
2022/03/25 02:13:08;;;;;;;19.35;14.18;;;;;;;;;;5034427;28;20033;-77
2022/03/25 02:15:34;;;;;;;21.50;13.25;;;;;;;;;;5034606;28;20021;-77
2022/03/25 02:18:01;;;;;;;23.75;15.52;;;;;;;;;;5034482;28;20029;-77
2022/03/25 02:20:28;;;;;;;21.48;14.68;;;;;;;;;;5034471;28;20040;-77
2022/03/25 02:22:54;;;;;;;19.45;12.75;;;;;;;;;;5034350;28;20472;-78
2022/03/25 02:25:21;;;;;;;18.30;13.13;;;;;;;;;;5034180;28;20469;-78
2022/03/25 02:27:48;;;;;;;19.40;13.50;;;;;;;;;;5034441;28;20056;-77
2022/03/25 02:30:14;;;;;;;19.58;13.15;;;;;;;;;;5034131;28;20460;-78
2022/03/25 02:32:40;;;;;;;19.60;14.85;;;;;;;;;;5034121;28;20029;-78
2022/03/25 02:35:06;;;;;;;26.58;16.45;;;;;;;;;;5033986;28;20039;-77
2022/03/25 02:37:33;;;;;;;24.42;15.95;;;;;;;;;;5034610;28;20033;-77
2022/03/25 02:39:59;;;;;;;18.85;13.73;;;;;;;;;;5034219;28;20380;-78
2022/03/25 02:42:25;;;;;;;21.63;13.82;;;;;;;;;;5034219;28;20099;-77
2022/03/25 02:44:52;;;;;;;23.13;15.45;;;;;;;;;;5033923;28;20032;-77
2022/03/25 02:47:18;;;;;;;19.35;14.43;;;;;;;;;;5033713;28;20480;-78
2022/03/25 02:49:44;;;;;;;19.80;14.73;;;;;;;;;;5034011;28;20022;-77
2022/03/25 02:52:10;;;;;;;19.08;13.02;;;;;;;;;;5033737;28;20036;-77
2022/03/25 02:54:36;;;;;;;18.92;12.77;;;;;;;;;;5033697;28;20875;-77
2022/03/25 02:57:03;;;;;;;19.27;13.05;;;;;;;;;;5033760;28;20440;-77
2022/03/25 02:59:29;;;;;;;19.20;13.48;;;;;;;;;;5033636;28;20029;-77
2022/03/25 03:01:55;;;;;;;18.02;13.18;;;;;;;;;;5033790;28;20431;-77
2022/03/25 03:04:21;;;;;;;22.42;13.65;;;;;;;;;;5033479;28;20033;-77
2022/03/25 03:06:47;;;;;;;27.10;16.90;;;;;;;;;;5033615;28;20516;-77
2022/03/25 03:09:13;;;;;;;27.23;17.25;;;;;;;;;;5033462;28;20033;-77
2022/03/25 03:11:39;;;;;;;22.80;15.57;;;;;;;;;;5033486;28;20060;-78
2022/03/25 03:14:05;;;;;;;22.48;15.48;;;;;;;;;;5033482;28;20082;-77
2022/03/25 03:16:32;;;;;;;17.65;12.98;;;;;;;;;;5033381;28;20108;-77
2022/03/25 03:18:58;;;;;;;19.70;14.32;;;;;;;;;;5033443;28;20033;-77
2022/03/25 03:21:24;;;;;;;19.67;13.55;;;;;;;;;;5033159;28;20476;-77
2022/03/25 03:23:52;;;;;;;19.42;14.10;;;;;;;;;;5033416;28;20045;-77
2022/03/25 03:26:18;;;;;;;20.77;12.60;;;;;;;;;;5031823;28;20544;-77
2022/03/25 03:28:44;;;;;;;19.48;14.27;;;;;;;;;;5033170;28;20091;-77
2022/03/25 03:31:11;;;;;;;20.52;13.85;;;;;;;;;;5033327;28;20071;-77
2022/03/25 03:33:37;;;;;;;17.33;12.70;;;;;;;;;;5032788;28;20095;-77
2022/03/25 03:36:03;;;;;;;18.92;13.85;;;;;;;;;;5033346;28;20024;-77
2022/03/25 03:38:29;;;;;;;18.70;13.23;;;;;;;;;;5032827;28;20025;-78
2022/03/25 03:40:55;;;;;;;16.33;11.98;;;;;;;;;;5032992;28;20515;-77
2022/03/25 03:43:22;;;;;;;16.98;11.82;;;;;;;;;;5030917;28;20028;-77
2022/03/25 03:45:49;;;;;;;18.25;12.32;;;;;;;;;;5032725;28;20109;-78
2022/03/25 03:48:15;;;;;;;19.40;11.90;;;;;;;;;;5032080;28;20469;-77
2022/03/25 03:50:41;;;;;;;21.15;13.13;;;;;;;;;;5033698;28;20374;-77
2022/03/25 03:53:07;;;;;;;18.90;13.27;;;;;;;;;;5031525;28;20077;-77
2022/03/25 03:55:34;;;;;;;20.30;12.85;;;;;;;;;;5032566;28;20104;-78
2022/03/25 03:58:00;;;;;;;21.48;13.60;;;;;;;;;;5032905;28;20477;-77
2022/03/25 04:00:27;;;;;;;20.00;13.02;;;;;;;;;;5032791;28;20465;-77
2022/03/25 04:02:55;;;;;;;21.75;13.40;;;;;;;;;;5032636;28;20033;-77
2022/03/25 04:05:22;;;;;;;20.25;12.88;;;;;;;;;;5032524;28;20025;-78
2022/03/25 04:07:48;;;;;;;30.65;18.45;;;;;;;;;;5032478;28;20389;-77
2022/03/25 04:10:16;;;;;;;25.50;16.05;;;;;;;;;;5032298;28;20093;-78
2022/03/25 04:12:42;;;;;;;20.75;13.52;;;;;;;;;;5031409;28;20048;-78
2022/03/25 04:15:12;;;;;;;22.30;13.50;;;;;;;;;;5032140;28;20440;-77
2022/03/25 04:17:39;;;;;;;20.55;12.80;;;;;;;;;;5032150;28;20017;-77
2022/03/25 04:20:06;;;;;;;18.35;13.45;;;;;;;;;;5031237;28;20033;-77
2022/03/25 04:22:32;;;;;;;22.40;12.95;;;;;;;;;;5031552;28;20456;-77
2022/03/25 04:24:58;;;;;;;19.98;12.50;;;;;;;;;;5031892;28;20125;-77
2022/03/25 04:27:24;;;;;;;21.75;13.30;;;;;;;;;;5031478;28;20084;-77
2022/03/25 04:29:50;;;;;;;19.75;12.73;;;;;;;;;;5031680;28;20057;-77
2022/03/25 04:32:16;;;;;;;17.42;12.15;;;;;;;;;;5031678;28;20033;-77
2022/03/25 04:34:43;;;;;;;18.60;12.32;;;;;;;;;;5031300;28;20037;-77
2022/03/25 04:37:09;;;;;;;21.45;13.90;;;;;;;;;;5030990;28;20120;-77
2022/03/25 04:39:35;;;;;;;21.98;13.05;;;;;;;;;;5031969;28;20022;-77
2022/03/25 04:42:01;;;;;;;19.65;13.25;;;;;;;;;;5030545;28;20075;-77
2022/03/25 04:44:28;;;;;;;17.35;12.43;;;;;;;;;;5032341;28;20369;-77
2022/03/25 04:46:55;;;;;;;19.00;14.07;;;;;;;;;;5031925;28;20033;-77
2022/03/25 04:49:21;;;;;;;21.15;13.98;;;;;;;;;;5032191;28;20029;-77
2022/03/25 04:51:48;;;;;;;22.45;13.65;;;;;;;;;;5031807;28;20045;-77
2022/03/25 04:54:14;;;;;;;22.50;13.30;;;;;;;;;;5031829;28;20055;-77
2022/03/25 04:56:41;;;;;;;20.55;14.25;;;;;;;;;;5035364;28;20025;-77
2022/03/25 04:59:07;;;;;;;23.27;14.70;;;;;;;;;;5036236;28;20108;-78
2022/03/25 05:01:34;;;;;;;27.73;15.85;;;;;;;;;;5036513;28;20025;-78
2022/03/25 05:04:00;;;;;;;23.10;14.57;;;;;;;;;;5034956;28;20451;-77
2022/03/25 05:06:26;;;;;;;20.15;14.32;;;;;;;;;;5035929;28;20038;-80
2022/03/25 05:08:52;;;;;;;21.23;12.80;;;;;;;;;;5035798;28;20086;-78
2022/03/25 05:11:20;;;;;;;21.98;14.77;;;;;;;;;;5035852;28;20057;-78
2022/03/25 05:13:46;;;;;;;22.85;14.35;;;;;;;;;;5035317;28;20030;-78
2022/03/25 05:16:12;;;;;;;43.85;26.15;;;;;;;;;;5029732;28;20037;-78
2022/03/25 05:18:39;;;;;;;40.97;25.52;;;;;;;;;;5035498;28;20025;-79
2022/03/25 05:21:06;;;;;;;23.58;15.98;;;;;;;;;;5035304;28;20035;-79
2022/03/25 05:23:32;;;;;;;26.08;15.27;;;;;;;;;;5035607;28;20063;-79
2022/03/25 05:25:58;;;;;;;21.88;15.23;;;;;;;;;;5033891;28;20378;-78
2022/03/25 05:28:25;;;;;;;22.08;15.52;;;;;;;;;;5035533;28;20030;-78
2022/03/25 05:30:52;;;;;;;20.42;13.82;;;;;;;;;;5034883;28;20378;-78
2022/03/25 05:33:18;;;;;;;24.95;16.73;;;;;;;;;;5035352;28;20060;-78
2022/03/25 05:35:44;;;;;;;49.35;33.80;;;;;;;;;;5035179;28;20018;-79
2022/03/25 05:38:10;;;;;;;44.40;25.83;;;;;;;;;;5035032;28;20048;-78
2022/03/25 05:40:36;;;;;;;43.63;32.85;;;;;;;;;;5035354;28;20035;-78
2022/03/25 05:43:02;;;;;;;35.22;25.40;;;;;;;;;;5034965;28;20483;-78
2022/03/25 05:45:28;;;;;;;37.90;27.27;;;;;;;;;;5034795;28;20033;-78
2022/03/25 05:47:55;;;;;;;50.47;30.65;;;;;;;;;;5034537;28;20034;-78
2022/03/25 05:50:22;;;;;;;42.53;26.45;;;;;;;;;;5033938;28;20018;-78
2022/03/25 05:52:49;;;;;;;51.30;31.13;;;;;;;;;;5034512;28;20021;-78
2022/03/25 05:55:16;;;;;;;25.58;17.58;;;;;;;;;;5034896;28;20022;-78
2022/03/25 05:57:43;;;;;;;30.50;19.05;;;;;;;;;;5035203;28;20037;-78
2022/03/25 06:00:09;;;;;;;21.70;15.55;;;;;;;;;;5032772;28;20488;-78
2022/03/25 06:02:35;;;;;;;25.65;15.13;;;;;;;;;;5035172;28;20025;-78
2022/03/25 06:05:01;;;;;;;21.58;16.00;;;;;;;;;;5034659;28;20064;-78
2022/03/25 06:07:35;;;;;;;20.52;15.20;;;;;;;;;;5034495;28;20068;-78
2022/03/25 06:10:01;;;;;;;21.55;15.13;;;;;;;;;;5033630;28;20021;-79
2022/03/25 06:12:27;;;;;;;22.85;15.82;;;;;;;;;;5014960;28;20038;-78
2022/03/25 06:14:53;;;;;;;22.35;14.75;;;;;;;;;;5014915;28;20389;-78
2022/03/25 06:17:20;;;;;;;22.13;14.85;;;;;;;;;;5014109;28;20376;-78
2022/03/25 06:19:46;;;;;;;22.17;15.45;;;;;;;;;;5014951;28;20030;-78
2022/03/25 06:22:12;;;;;;;20.02;14.68;;;;;;;;;;5014148;28;20030;-78
2022/03/25 06:24:38;;;;;;;25.63;15.15;;;;;;;;;;5014623;28;20111;-78
2022/03/25 06:27:04;;;;;;;19.77;15.02;;;;;;;;;;5013109;28;20036;-78
2022/03/25 06:29:31;;;;;;;27.25;16.40;;;;;;;;;;5016832;28;20029;-75
2022/03/25 06:31:57;;;;;;;23.15;14.88;;;;;;;;;;5031721;28;20473;-76
2022/03/25 06:34:23;;;;;;;24.27;15.95;;;;;;;;;;5032948;28;20402;-76
2022/03/25 06:36:49;;;;;;;27.55;20.17;;;;;;;;;;5033267;28;20374;-76
2022/03/25 06:39:16;;;;;;;35.60;21.85;;;;;;;;;;5033030;28;20091;-77
2022/03/25 06:41:42;;;;;;;42.58;24.63;;;;;;;;;;5033393;28;20061;-79
2022/03/25 06:44:08;;;;;;;40.78;27.08;;;;;;;;;;5034325;28;20029;-77
2022/03/25 06:46:35;;;;;;;39.17;25.17;;;;;;;;;;5033038;28;20148;-76
2022/03/25 06:49:01;;;;;;;38.42;24.60;;;;;;;;;;5032196;28;20030;-84
2022/03/25 06:51:28;;;;;;;40.80;28.10;;;;;;;;;;5034034;28;20036;-80
2022/03/25 06:53:54;;;;;;;58.95;35.05;;;;;;;;;;5032620;28;20114;-83
2022/03/25 06:56:20;;;;;;;40.70;24.17;;;;;;;;;;5033526;28;20026;-77
2022/03/25 06:58:46;;;;;;;32.88;20.83;;;;;;;;;;5032499;28;20038;-78
2022/03/25 07:01:14;;;;;;;29.30;20.35;;;;;;;;;;5033295;28;20026;-82
2022/03/25 07:03:40;;;;;;;26.33;18.80;;;;;;;;;;5032973;28;20033;-81
2022/03/25 07:06:09;;;;;;;25.25;14.68;;;;;;;;;;5033312;28;20405;-79
2022/03/25 07:08:35;;;;;;;21.13;14.35;;;;;;;;;;5033388;28;20037;-80
2022/03/25 07:11:02;;;;;;;23.60;14.77;;;;;;;;;;5031238;28;20025;-80
2022/03/25 07:13:29;;;;;;;23.00;13.93;;;;;;;;;;5031574;28;20029;-83
2022/03/25 07:15:55;;;;;;;19.10;13.52;;;;;;;;;;5032521;28;20083;-77
2022/03/25 07:18:21;;;;;;;21.80;13.82;;;;;;;;;;5032543;28;20021;-79
2022/03/25 07:20:47;;;;;;;18.88;13.07;;;;;;;;;;5031413;28;20044;-78
2022/03/25 07:23:13;;;;;;;18.27;12.57;;;;;;;;;;5032327;28;20496;-79
2022/03/25 07:25:39;;;;;;;25.40;13.90;;;;;;;;;;5032052;28;20117;-80
2022/03/25 07:28:05;;;;;;;17.42;12.68;;;;;;;;;;5031201;28;20400;-79
2022/03/25 07:30:32;;;;;;;19.38;12.77;;;;;;;;;;5031664;28;20224;-79
2022/03/25 07:32:58;;;;;;;17.45;13.45;;;;;;;;;;5031451;28;20099;-79
2022/03/25 07:35:24;;;;;;;16.83;11.48;;;;;;;;;;5031474;28;20034;-79
2022/03/25 07:37:50;;;;;;;16.88;11.65;;;;;;;;;;5031678;28;20041;-81
2022/03/25 07:40:17;;;;;;;17.58;12.55;;;;;;;;;;5031566;28;20108;-77
2022/03/25 07:42:44;;;;;;;36.70;26.40;;;;;;;;;;5031660;28;20039;-79
2022/03/25 07:45:11;;;;;;;18.00;12.15;;;;;;;;;;5031652;28;20021;-77
2022/03/25 07:47:49;;;;;;;17.85;11.90;;;;;;;;;;5031870;28;20033;-75
2022/03/25 07:50:17;;;;;;;16.85;12.63;;;;;;;;;;5031310;28;20025;-77
2022/03/25 07:52:43;;;;;;;17.00;12.77;;;;;;;;;;5030490;28;20083;-77
2022/03/25 07:55:10;;;;;;;18.02;13.55;;;;;;;;;;5031265;28;20056;-77
2022/03/25 07:57:37;;;;;;;18.23;12.25;;;;;;;;;;5031676;28;20389;-78
2022/03/25 08:00:13;;;;;;;18.98;14.30;;;;;;;;;;5030734;28;20041;-78
2022/03/25 08:02:58;;;;;;;19.63;11.85;;;;;;;;;;5031291;28;20060;-78
2022/03/25 08:05:24;;;;;;;16.95;11.90;;;;;;;;;;5031628;28;20048;-77
2022/03/25 08:07:55;;;;;;;17.52;12.38;;;;;;;;;;5031168;28;20040;-78
2022/03/25 08:10:25;;;;;;;19.50;12.80;;;;;;;;;;5030262;28;20041;-79
2022/03/25 08:12:51;;;;;;;16.83;12.13;;;;;;;;;;5030495;28;20105;-78
2022/03/25 08:15:18;;;;;;;15.38;10.85;;;;;;;;;;5030915;28;20081;-81
2022/03/25 08:17:55;;;;;;;16.25;12.48;;;;;;;;;;5031125;28;20033;-81
2022/03/25 08:20:26;;;;;;;17.27;12.60;;;;;;;;;;5030383;28;20057;-76
2022/03/25 08:22:53;;;;;;;17.02;13.15;;;;;;;;;;5031306;28;20076;-78
2022/03/25 08:28:04;;;;;;;14.63;11.60;;;;;;;;;;5031158;28;20120;-80
2022/03/25 08:30:31;;;;;;;30.38;15.15;;;;;;;;;;5029394;28;20025;-77
2022/03/25 08:32:57;;;;;;;15.68;10.77;;;;;;;;;;5029883;28;20033;-77
2022/03/25 08:35:27;;;;;;;18.30;11.43;;;;;;;;;;5027258;28;20041;-82
2022/03/25 08:37:54;;;;;;;16.42;11.15;;;;;;;;;;5029929;28;20029;-79
2022/03/25 08:40:24;;;;;;;15.25;10.20;;;;;;;;;;5030550;28;20400;-79
2022/03/25 08:42:50;;;;;;;16.13;10.73;;;;;;;;;;5029767;28;20037;-78
2022/03/25 08:45:17;;;;;;;15.85;11.02;;;;;;;;;;5030162;28;20094;-76
2022/03/25 08:47:43;;;;;;;13.93;10.57;;;;;;;;;;5029049;28;20561;-77
2022/03/25 08:50:12;;;;;;;15.02;10.55;;;;;;;;;;5030541;28;20116;-77
2022/03/25 08:52:39;;;;;;;15.15;10.77;;;;;;;;;;5030027;28;20116;-80
2022/03/25 08:55:06;;;;;;;14.60;10.68;;;;;;;;;;5029196;28;20112;-77
2022/03/25 08:57:32;;;;;;;14.80;11.60;;;;;;;;;;5030811;28;20026;-79
2022/03/25 08:59:58;;;;;;;15.35;11.32;;;;;;;;;;5030773;28;20116;-78
2022/03/25 09:02:25;;;;;;;32.83;23.63;;;;;;;;;;5030225;28;20104;-78
2022/03/25 09:04:51;;;;;;;17.25;13.20;;;;;;;;;;5030988;28;20049;-77
2022/03/25 09:07:17;;;;;;;15.40;12.07;;;;;;;;;;5030579;28;20037;-77
2022/03/25 09:09:43;;;;;;;20.33;13.05;;;;;;;;;;5030236;28;20044;-77
2022/03/25 09:12:09;;;;;;;21.25;12.98;;;;;;;;;;5030309;28;20048;-77
2022/03/25 09:14:36;;;;;;;19.48;12.95;;;;;;;;;;5030490;28;20068;-76
2022/03/25 09:17:02;;;;;;;16.33;12.73;;;;;;;;;;5029956;28;20061;-78
2022/03/25 09:19:28;;;;;;;15.82;12.27;;;;;;;;;;5029939;28;20424;-81
2022/03/25 09:21:54;;;;;;;18.33;12.13;;;;;;;;;;5030096;28;20029;-83
2022/03/25 09:24:20;;;;;;;18.83;12.80;;;;;;;;;;5030307;28;20057;-81
2022/03/25 09:26:46;;;;;;;19.65;12.50;;;;;;;;;;5030268;28;20034;-79
2022/03/25 09:29:12;;;;;;;20.52;13.70;;;;;;;;;;5029007;28;20206;-78
2022/03/25 09:31:42;;;;;;;19.33;14.77;;;;;;;;;;5029800;28;20504;-76
2022/03/25 09:36:53;;;;;;;20.38;13.57;;;;;;;;;;5010841;28;20805;-79
2022/03/25 09:39:19;;;;;;;19.67;14.25;;;;;;;;;;5022939;28;20473;-79
2022/03/25 09:41:46;;;;;;;16.73;13.80;;;;;;;;;;5029551;28;20032;-83
2022/03/25 09:44:15;;;;;;;16.52;13.52;;;;;;;;;;5034179;28;20111;-79
2022/03/25 09:46:42;;;;;;;16.38;13.63;;;;;;;;;;5032286;28;20037;-79
2022/03/25 09:49:11;;;;;;;19.10;14.63;;;;;;;;;;5033260;28;20033;-76
2022/03/25 09:51:37;;;;;;;18.48;14.32;;;;;;;;;;5032849;28;20848;-78
2022/03/25 09:54:04;;;;;;;20.00;13.25;;;;;;;;;;5032786;28;20049;-79
2022/03/25 09:56:31;;;;;;;18.45;13.80;;;;;;;;;;5033506;28;20506;-80
2022/03/25 09:58:57;;;;;;;20.73;13.82;;;;;;;;;;5033621;28;20033;-78
2022/03/25 10:01:23;;;;;;;15.75;13.25;;;;;;;;;;5033466;28;20029;-80
2022/03/25 10:03:49;;;;;;;15.63;12.88;;;;;;;;;;5033601;28;20036;-78
2022/03/25 10:06:15;;;;;;;23.95;18.92;;;;;;;;;;5033838;28;20033;-78
2022/03/25 10:08:43;;;;;;;21.25;14.85;;;;;;;;;;5033075;28;20436;-76
2022/03/25 10:11:30;;;;;;;22.20;13.82;;;;;;;;;;5033763;28;20025;-78
2022/03/25 10:14:33;;;;;;;18.70;12.73;;;;;;;;;;5033399;28;20029;-78
2022/03/25 10:17:09;;;;;;;19.73;12.75;;;;;;;;;;4990283;28;20116;-77
2022/03/25 10:19:46;;;;;;;17.33;12.70;;;;;;;;;;5036883;28;20389;-78
2022/03/25 10:22:15;;;;;;;16.08;13.70;;;;;;;;;;5016601;28;20034;-80
2022/03/25 10:24:43;;;;;;;15.77;12.63;;;;;;;;;;5013045;28;20034;-73
2022/03/25 10:27:09;;;;;;;15.30;11.65;;;;;;;;;;5013477;28;20045;-81
2022/03/25 10:29:36;;;;;;;13.60;11.18;;;;;;;;;;5013378;28;20038;-78
2022/03/25 10:32:12;;;;;;;16.13;11.70;;;;;;;;;;5014180;28;20034;-79
2022/03/25 10:34:39;;;;;;;15.05;11.73;;;;;;;;;;5033142;28;20473;-78
2022/03/25 10:37:12;;;;;;;17.58;12.55;;;;;;;;;;5032750;28;20097;-82
2022/03/25 10:39:42;;;;;;;14.65;11.50;;;;;;;;;;5033098;28;20108;-79
2022/03/25 10:42:09;;;;;;;16.77;11.43;;;;;;;;;;5031511;28;20374;-80
2022/03/25 10:44:53;;;;;;;15.98;10.13;;;;;;;;;;5034781;28;20021;-78
2022/03/25 10:47:24;;;;;;;;;;;;;;;;;;5039552;28;20361;-78
2022/03/25 10:49:51;;;;;;;17.55;9.43;;;;;;;;;;5039881;28;19963;-80
2022/03/25 10:52:23;;;;;;;13.95;7.68;;;;;;;;;;5037071;28;20033;-80
2022/03/25 10:54:50;;;;;;;10.43;7.28;;;;;;;;;;5036240;28;20049;-77
2022/03/25 10:57:17;;;;;;;29.92;14.77;;;;;;;;;;5032958;28;20037;-82
2022/03/25 10:59:44;;;;;;;17.80;10.60;;;;;;;;;;5033044;28;20449;-78
2022/03/25 11:02:11;;;;;;;16.92;8.82;;;;;;;;;;5031119;28;20472;-74
2022/03/25 11:04:40;;;;;;;14.38;8.68;;;;;;;;;;5032269;28;20033;-77
2022/03/25 11:07:10;;;;;;;14.77;8.35;;;;;;;;;;5031356;28;20053;-80
2022/03/25 11:09:36;;;;;;;26.00;15.43;;;;;;;;;;5032769;28;20026;-82
2022/03/25 11:12:02;;;;;;;9.23;5.95;;;;;;;;;;5031625;28;20033;-79
2022/03/25 11:14:28;;;;;;;12.48;6.78;;;;;;;;;;5030787;28;20041;-77
2022/03/25 11:16:55;;;;;;;9.57;7.40;;;;;;;;;;5031726;28;20037;-78
2022/03/25 11:19:22;;;;;;;10.23;7.00;;;;;;;;;;5032658;28;20489;-77
2022/03/25 11:21:52;;;;;;;11.30;6.72;;;;;;;;;;5031635;28;20663;-80
2022/03/25 11:24:30;;;;;;;12.10;6.22;;;;;;;;;;5031835;28;20029;-77
2022/03/25 11:26:57;;;;;;;9.68;5.43;;;;;;;;;;5029157;28;20037;-79
2022/03/25 11:29:26;;;;;;;10.05;6.30;;;;;;;;;;5030273;28;20063;-76
2022/03/25 11:32:11;;;;;;;12.50;7.45;;;;;;;;;;5030679;28;20116;-77
2022/03/25 11:34:56;;;;;;;11.15;7.57;;;;;;;;;;5046575;28;20428;-77
2022/03/25 11:37:29;;;;;;;17.02;9.75;;;;;;;;;;5028828;28;20053;-77
2022/03/25 11:40:14;;;;;;;10.48;6.90;;;;;;;;;;5031448;28;20029;-77
2022/03/25 11:42:41;;;;;;;11.80;7.72;;;;;;;;;;5031214;28;20108;-78
2022/03/25 11:45:33;;;;;;;11.90;7.85;;;;;;;;;;5031668;28;20040;-78
2022/03/25 11:50:46;;;;;;;16.60;9.43;;;;;;;;;;5030777;28;20491;-76
2022/03/25 11:53:32;;;;;;;12.00;8.60;;;;;;;;;;5030710;28;20046;-76
2022/03/25 11:56:04;;;;;;;11.02;8.85;;;;;;;;;;5030097;28;20551;-77
2022/03/25 11:58:37;;;;;;;14.10;8.82;;;;;;;;;;5031313;28;20048;-77
2022/03/25 12:01:04;;;;;;;12.98;8.52;;;;;;;;;;5015557;28;20021;-78
2022/03/25 12:03:41;;;;;;;14.75;7.78;;;;;;;;;;5031683;28;20029;-81
2022/03/25 12:06:08;;;;;;;11.82;8.80;;;;;;;;;;5029467;28;20423;-76
2022/03/25 12:08:39;;;;;;;13.35;8.40;;;;;;;;;;5031670;28;20052;-79
2022/03/25 12:11:10;;;;;;;11.23;7.75;;;;;;;;;;5031426;28;20036;-79
2022/03/25 12:13:55;;;;;;;10.38;7.13;;;;;;;;;;5031242;28;20598;-76
2022/03/25 12:16:42;;;;;;;12.85;9.38;;;;;;;;;;5031374;28;20049;-80
2022/03/25 12:19:28;;;;;;;13.57;7.30;;;;;;;;;;5029340;28;20025;-80
2022/03/25 12:21:58;;;;;;;12.65;7.22;;;;;;;;;;5026073;28;20033;-81
2022/03/25 12:24:25;;;;;;;11.52;6.78;;;;;;;;;;5031231;28;20029;-77
2022/03/25 12:26:55;;;;;;;8.77;6.63;;;;;;;;;;5030833;28;20560;-77
2022/03/25 12:29:28;;;;;;;9.25;6.95;;;;;;;;;;5030320;28;20060;-78
2022/03/25 12:31:55;;;;;;;7.53;5.70;;;;;;;;;;5030507;28;20033;-78
2022/03/25 12:34:30;;;;;;;11.90;6.78;;;;;;;;;;5030444;28;20099;-79
2022/03/25 12:36:57;;;;;;;19.20;8.80;;;;;;;;;;5030672;28;20025;-79
2022/03/25 12:39:23;;;;;;;8.93;7.07;;;;;;;;;;5030842;28;20049;-78
2022/03/25 12:41:51;;;;;;;11.07;6.53;;;;;;;;;;5031123;28;20530;-80
2022/03/25 12:44:30;;;;;;;9.23;6.30;;;;;;;;;;5029114;28;20768;-80
2022/03/25 12:47:00;;;;;;;7.97;5.40;;;;;;;;;;5029388;28;20121;-81
2022/03/25 12:49:27;;;;;;;9.75;6.55;;;;;;;;;;5030808;28;20025;-78
2022/03/25 12:51:57;;;;;;;10.63;6.90;;;;;;;;;;5029519;28;20029;-78
2022/03/25 12:54:23;;;;;;;8.63;6.95;;;;;;;;;;5030278;28;20050;-78
2022/03/25 12:56:56;;;;;;;11.57;6.68;;;;;;;;;;5030013;28;20037;-78
2022/03/25 12:59:33;;;;;;;8.40;5.78;;;;;;;;;;5028631;28;20068;-79
2022/03/25 13:02:15;;;;;;;10.35;5.88;;;;;;;;;;5024659;28;20091;-84
2022/03/25 13:04:41;;;;;;;41.42;32.90;;;;;;;;;;5031431;28;20017;-83
2022/03/25 13:07:14;;;;;;;9.38;6.68;;;;;;;;;;5031709;28;20108;-78
2022/03/25 13:09:59;;;;;;;11.02;7.13;;;;;;;;;;5032133;28;20505;-75
2022/03/25 13:12:44;;;;;;;14.25;8.48;;;;;;;;;;5032353;28;20440;-82
2022/03/25 13:15:11;;;;;;;7.97;6.65;;;;;;;;;;5031825;28;20025;-77
2022/03/25 13:17:37;;;;;;;31.05;10.85;;;;;;;;;;5033815;28;20032;-76
2022/03/25 13:20:09;;;;;;;13.60;8.73;;;;;;;;;;5035884;28;20053;-75
2022/03/25 13:22:36;;;;;;;11.65;7.85;;;;;;;;;;5035486;28;20032;-77
2022/03/25 13:25:03;;;;;;;11.80;8.68;;;;;;;;;;5035963;28;20035;-76
2022/03/25 13:27:29;;;;;;;13.07;10.50;;;;;;;;;;5035189;28;20048;-76
2022/03/25 13:29:56;;;;;;;18.77;14.40;;;;;;;;;;5035207;28;20029;-74
2022/03/25 13:32:32;;;;;;;20.20;15.20;;;;;;;;;;5035406;28;20026;-75
2022/03/25 13:35:03;;;;;;;20.65;18.45;;;;;;;;;;5035000;28;20488;-76
2022/03/25 13:37:29;;;;;;;13.57;9.63;;;;;;;;;;5034811;28;20096;-73
2022/03/25 13:39:55;;;;;;;11.88;9.45;;;;;;;;;;5034762;28;20105;-76
2022/03/25 13:42:21;;;;;;;16.33;10.50;;;;;;;;;;5034391;28;20033;-76
2022/03/25 13:44:47;;;;;;;18.95;12.85;;;;;;;;;;5035525;28;20033;-75
2022/03/25 13:47:14;;;;;;;19.85;17.92;;;;;;;;;;5034947;28;20512;-75
2022/03/25 13:49:40;;;;;;;21.08;18.45;;;;;;;;;;5033818;28;20436;-74
2022/03/25 13:52:07;;;;;;;13.18;10.23;;;;;;;;;;5034263;28;20033;-77
2022/03/25 13:54:33;;;;;;;16.48;13.55;;;;;;;;;;5034549;28;20484;-78
2022/03/25 13:57:04;;;;;;;24.23;21.35;;;;;;;;;;5035008;28;20037;-80
2022/03/25 13:59:51;;;;;;;18.45;15.80;;;;;;;;;;5034661;28;20033;-74
2022/03/25 14:02:28;;;;;;;19.65;14.82;;;;;;;;;;5034828;28;20033;-78
2022/03/25 14:04:57;;;;;;;12.75;10.02;;;;;;;;;;5034485;28;20039;-76
2022/03/25 14:07:23;;;;;;;15.75;9.80;;;;;;;;;;5034458;28;20056;-77
2022/03/25 14:09:54;;;;;;;10.68;9.00;;;;;;;;;;5034099;28;20342;-77
2022/03/25 14:12:22;;;;;;;14.82;9.98;;;;;;;;;;5033022;28;20025;-77
2022/03/25 14:14:58;;;;;;;10.63;7.45;;;;;;;;;;5031833;28;20025;-77
2022/03/25 14:17:43;;;;;;;12.88;10.35;;;;;;;;;;5030708;28;20033;-76
2022/03/25 14:20:10;;;;;;;14.25;10.60;;;;;;;;;;5031575;28;20456;-78
2022/03/25 14:22:37;;;;;;;12.07;10.45;;;;;;;;;;5032283;28;20022;-78
2022/03/25 14:25:04;;;;;;;22.98;17.73;;;;;;;;;;5033039;28;20041;-77
2022/03/25 14:27:30;;;;;;;48.38;32.03;;;;;;;;;;5031808;28;20036;-77
2022/03/25 14:29:57;;;;;;;15.32;9.15;;;;;;;;;;5032324;28;20025;-78
2022/03/25 14:32:23;;;;;;;11.95;8.38;;;;;;;;;;5033059;28;20026;-79
2022/03/25 14:34:52;;;;;;;12.95;9.30;;;;;;;;;;5032642;28;20029;-77